createdAt,value
2022-10-25T00:00:57.826Z,14.80
2022-10-25T00:03:24.908Z,14.80
2022-10-25T00:05:51.693Z,14.90
2022-10-25T00:08:18.495Z,14.90
2022-10-25T00:10:45.383Z,14.80
2022-10-25T00:13:12.593Z,14.70
2022-10-25T00:15:39.329Z,14.70
2022-10-25T00:18:06.206Z,14.70
2022-10-25T00:20:32.969Z,14.60
2022-10-25T00:23:00.440Z,14.60
2022-10-25T00:25:27.197Z,14.70
2022-10-25T00:27:53.919Z,14.80
2022-10-25T00:30:21.070Z,14.80
2022-10-25T00:32:52.661Z,14.80
2022-10-25T00:35:19.967Z,14.90
2022-10-25T00:37:46.760Z,14.90
2022-10-25T00:40:14.052Z,14.90
2022-10-25T00:42:40.816Z,14.90
2022-10-25T00:45:26.345Z,14.90
2022-10-25T00:47:56.674Z,14.90
2022-10-25T00:50:47.687Z,14.90
2022-10-25T00:53:20.410Z,14.90
2022-10-25T00:55:51.773Z,14.80
2022-10-25T00:58:23.075Z,14.80
2022-10-25T01:00:50.727Z,14.70
2022-10-25T01:03:20.676Z,14.70
2022-10-25T01:05:48.769Z,14.70
2022-10-25T01:08:16.713Z,14.60
2022-10-25T01:10:43.832Z,14.50
2022-10-25T01:13:11.102Z,14.40
2022-10-25T01:16:04.809Z,14.40
2022-10-25T01:18:50.431Z,14.20
2022-10-25T01:21:23.366Z,14.10
2022-10-25T01:24:13.091Z,14.10
2022-10-25T01:26:54.974Z,14.10
2022-10-25T01:29:59.650Z,14.20
2022-10-25T01:32:42.325Z,14.10
2022-10-25T01:35:29.657Z,14.20
2022-10-25T01:38:15.912Z,14.20
2022-10-25T01:40:52.347Z,14.20
2022-10-25T01:43:31.137Z,14.30
2022-10-25T01:46:25.664Z,14.30
2022-10-25T01:49:03.125Z,14.30
2022-10-25T01:51:30.119Z,14.30
2022-10-25T01:53:56.935Z,14.30
2022-10-25T01:56:37.793Z,14.40
2022-10-25T01:59:29.232Z,14.40
2022-10-25T02:02:15.219Z,14.40
2022-10-25T02:04:52.219Z,14.50
2022-10-25T02:07:30.842Z,14.50
2022-10-25T02:10:12.442Z,14.50
2022-10-25T02:12:54.080Z,14.50
2022-10-25T02:15:43.750Z,14.50
2022-10-25T02:18:18.397Z,14.60
2022-10-25T02:20:47.139Z,14.60
2022-10-25T02:23:17.703Z,14.60
2022-10-25T02:25:47.160Z,14.60
2022-10-25T02:28:17.998Z,14.60
2022-10-25T02:30:44.908Z,14.60
2022-10-25T02:33:12.385Z,14.60
2022-10-25T02:35:39.657Z,14.70
2022-10-25T02:38:06.557Z,14.70
2022-10-25T02:40:33.480Z,14.60
2022-10-25T02:43:00.185Z,14.60
2022-10-25T02:45:27.002Z,14.60
2022-10-25T02:47:53.701Z,14.60
2022-10-25T02:50:20.479Z,14.60
2022-10-25T02:52:47.407Z,14.60
2022-10-25T02:55:14.650Z,14.70
2022-10-25T02:57:41.745Z,14.70
2022-10-25T03:00:10.137Z,14.80
2022-10-25T03:02:36.926Z,14.80
2022-10-25T03:05:03.801Z,14.80
2022-10-25T03:07:31.005Z,14.80
2022-10-25T03:09:57.704Z,14.80
2022-10-25T03:12:24.447Z,14.80
2022-10-25T03:14:51.238Z,14.80
2022-10-25T03:17:18.021Z,14.70
2022-10-25T03:19:44.986Z,14.80
2022-10-25T03:22:11.660Z,14.70
2022-10-25T03:24:38.341Z,14.60
2022-10-25T03:27:05.116Z,14.60
2022-10-25T03:29:32.136Z,14.40
2022-10-25T03:31:59.265Z,14.50
2022-10-25T03:34:26.490Z,14.40
2022-10-25T03:36:53.290Z,14.40
2022-10-25T03:39:20.061Z,14.30
2022-10-25T03:41:46.845Z,14.20
2022-10-25T03:44:14.044Z,14.00
2022-10-25T03:46:40.764Z,14.00
2022-10-25T03:49:07.688Z,14.00
2022-10-25T03:51:34.436Z,13.90
2022-10-25T03:54:01.193Z,13.90
2022-10-25T03:56:27.893Z,13.90
2022-10-25T03:58:54.584Z,13.90
2022-10-25T04:01:21.793Z,14.00
2022-10-25T04:03:48.544Z,14.00
2022-10-25T04:06:15.680Z,14.00
2022-10-25T04:08:42.814Z,14.00
2022-10-25T04:11:09.558Z,14.00
2022-10-25T04:13:36.259Z,14.10
2022-10-25T04:16:09.388Z,14.10
2022-10-25T04:18:36.283Z,14.10
2022-10-25T04:21:03.154Z,14.10
2022-10-25T04:23:31.376Z,14.20
2022-10-25T04:25:58.536Z,14.10
2022-10-25T04:28:25.834Z,14.10
2022-10-25T04:30:52.737Z,14.10
2022-10-25T04:33:19.548Z,14.10
2022-10-25T04:35:53.843Z,14.10
2022-10-25T04:38:20.604Z,14.10
2022-10-25T04:40:57.097Z,14.10
2022-10-25T04:43:25.536Z,14.20
2022-10-25T04:45:53.041Z,14.00
2022-10-25T04:48:20.855Z,14.00
2022-10-25T04:50:47.791Z,14.00
2022-10-25T04:53:14.938Z,14.00
2022-10-25T04:55:41.713Z,14.00
2022-10-25T04:58:08.468Z,13.90
2022-10-25T05:00:35.408Z,13.90
2022-10-25T05:03:02.566Z,13.90
2022-10-25T05:05:29.389Z,13.80
2022-10-25T05:07:56.102Z,13.90
2022-10-25T05:10:22.901Z,13.80
2022-10-25T05:12:50.133Z,13.80
2022-10-25T05:15:17.368Z,13.80
2022-10-25T05:17:44.116Z,13.80
2022-10-25T05:20:11.082Z,13.80
2022-10-25T05:22:37.858Z,13.70
2022-10-25T05:25:05.904Z,13.70
2022-10-25T05:27:36.326Z,13.80
2022-10-25T05:32:52.550Z,13.90
2022-10-25T05:38:22.999Z,14.10
2022-10-25T05:40:56.383Z,13.70
2022-10-25T05:43:23.847Z,14.20
2022-10-25T05:45:52.256Z,13.10
2022-10-25T05:48:19.751Z,13.60
2022-10-25T05:50:47.692Z,13.30
2022-10-25T05:53:14.865Z,13.50
2022-10-25T05:55:42.065Z,13.60
2022-10-25T05:58:10.083Z,14.70
2022-10-25T06:03:05.453Z,13.50
2022-10-25T06:05:33.256Z,13.80
2022-10-25T06:10:41.979Z,15.30
2022-10-25T06:13:09.105Z,14.90
2022-10-25T06:15:39.344Z,14.40
2022-10-25T06:18:07.050Z,13.70
2022-10-25T06:20:34.233Z,13.80
2022-10-25T06:23:01.467Z,15.00
2022-10-25T06:25:28.711Z,14.60
2022-10-25T06:27:58.695Z,14.90
2022-10-25T06:30:25.912Z,14.40
2022-10-25T06:32:54.818Z,15.50
2022-10-25T06:35:21.989Z,14.30
2022-10-25T06:37:50.156Z,14.00
2022-10-25T06:40:17.842Z,15.00
2022-10-25T06:42:45.261Z,15.20
2022-10-25T06:45:13.373Z,16.00
2022-10-25T06:47:44.890Z,14.30
2022-10-25T06:50:12.323Z,14.70
2022-10-25T06:52:40.034Z,15.80
2022-10-25T06:55:07.037Z,15.10
2022-10-25T06:57:34.243Z,14.60
2022-10-25T07:02:28.802Z,16.00
2022-10-25T07:04:56.387Z,15.00
2022-10-25T07:07:23.693Z,14.70
2022-10-25T07:09:50.799Z,14.60
2022-10-25T07:12:18.086Z,15.50
2022-10-25T07:14:45.480Z,15.30
2022-10-25T07:17:12.707Z,15.20
2022-10-25T07:19:39.870Z,14.40
2022-10-25T07:22:06.920Z,16.00
2022-10-25T07:24:33.755Z,15.70
2022-10-25T07:27:00.639Z,15.20
2022-10-25T07:29:27.667Z,16.60
2022-10-25T07:31:54.455Z,18.10
2022-10-25T07:34:21.395Z,16.80
2022-10-25T07:36:48.752Z,15.60
2022-10-25T07:39:15.638Z,17.10
2022-10-25T07:41:42.615Z,15.70
2022-10-25T07:44:14.769Z,18.50
2022-10-25T07:46:43.884Z,17.30
2022-10-25T07:49:10.826Z,15.60
2022-10-25T07:51:38.073Z,17.50
2022-10-25T07:54:05.376Z,17.70
2022-10-25T07:56:32.568Z,16.90
2022-10-25T07:58:59.645Z,16.30
2022-10-25T08:01:28.218Z,17.70
2022-10-25T08:03:55.667Z,17.70
2022-10-25T08:06:24.283Z,17.80
2022-10-25T08:08:51.140Z,17.80
2022-10-25T08:11:18.404Z,17.80
2022-10-25T08:13:48.589Z,17.80
2022-10-25T08:16:15.811Z,17.80
2022-10-25T08:18:44.046Z,17.90
2022-10-25T08:21:10.994Z,17.90
2022-10-25T08:23:37.883Z,18.00
2022-10-25T08:26:04.679Z,18.20
2022-10-25T08:28:31.757Z,18.40
2022-10-25T08:31:00.778Z,18.80
2022-10-25T08:33:28.099Z,19.00
2022-10-25T08:35:54.963Z,19.20
2022-10-25T08:38:21.904Z,19.50
2022-10-25T08:41:16.137Z,19.70
2022-10-25T08:43:48.884Z,20.00
2022-10-25T08:46:31.986Z,20.40
2022-10-25T08:49:21.116Z,20.80
2022-10-25T08:51:50.773Z,21.20
2022-10-25T08:54:28.390Z,21.60
2022-10-25T08:57:18.759Z,21.80
2022-10-25T08:59:51.439Z,22.20
2022-10-25T09:02:24.062Z,22.70
2022-10-25T09:04:50.991Z,23.00
2022-10-25T09:07:38.437Z,23.30
2022-10-25T09:10:19.655Z,23.40
2022-10-25T09:13:10.942Z,23.40
2022-10-25T09:15:56.698Z,23.60
2022-10-25T09:18:35.994Z,23.80
2022-10-25T09:21:10.014Z,23.90
2022-10-25T09:23:44.007Z,24.00
2022-10-25T09:26:21.261Z,24.10
2022-10-25T09:29:17.177Z,24.60
2022-10-25T09:31:48.837Z,25.10
2022-10-25T09:34:19.258Z,25.50
2022-10-25T09:36:52.877Z,25.70
2022-10-25T09:39:25.938Z,25.70
2022-10-25T09:41:54.557Z,25.80
2022-10-25T09:44:41.329Z,26.20
2022-10-25T09:47:35.510Z,26.60
2022-10-25T09:50:06.845Z,26.90
2022-10-25T09:52:46.308Z,27.00
2022-10-25T09:55:39.448Z,27.30
2022-10-25T09:58:18.126Z,27.70
2022-10-25T10:00:45.272Z,28.00
2022-10-25T10:03:13.233Z,28.30
2022-10-25T10:05:46.700Z,28.70
2022-10-25T10:08:13.542Z,28.80
2022-10-25T10:10:41.748Z,28.90
2022-10-25T10:13:23.044Z,29.00
2022-10-25T10:15:58.040Z,29.10
2022-10-25T10:18:32.919Z,29.30
2022-10-25T10:21:12.553Z,29.60
2022-10-25T10:24:02.574Z,30.10
2022-10-25T10:26:43.180Z,30.60
2022-10-25T10:29:15.426Z,30.80
2022-10-25T10:31:53.425Z,31.30
2022-10-25T10:34:27.663Z,31.80
2022-10-25T10:37:07.880Z,32.50
2022-10-25T10:39:35.098Z,32.90
2022-10-25T10:42:15.461Z,32.50
2022-10-25T10:44:59.330Z,32.00
2022-10-25T10:47:35.029Z,32.10
2022-10-25T10:50:02.816Z,32.30
2022-10-25T10:52:39.092Z,32.40
2022-10-25T10:55:20.363Z,32.70
2022-10-25T10:57:47.246Z,32.30
2022-10-25T11:00:26.675Z,32.00
2022-10-25T11:02:54.141Z,31.30
2022-10-25T11:05:28.277Z,30.80
2022-10-25T11:08:18.810Z,30.80
2022-10-25T11:10:45.939Z,31.10
2022-10-25T11:13:17.597Z,32.10
2022-10-25T11:16:15.501Z,33.10
2022-10-25T11:18:53.199Z,34.00
2022-10-25T11:21:19.920Z,34.70
2022-10-25T11:24:07.699Z,35.50
2022-10-25T11:26:53.717Z,36.30
2022-10-25T11:29:54.698Z,37.10
2022-10-25T11:32:48.944Z,38.00
2022-10-25T11:35:42.439Z,38.50
2022-10-25T11:38:35.029Z,39.00
2022-10-25T11:41:06.601Z,39.30
2022-10-25T11:43:42.191Z,39.40
2022-10-25T11:46:23.884Z,39.60
2022-10-25T11:49:36.728Z,39.70
2022-10-25T11:52:22.942Z,40.00
2022-10-25T11:55:06.001Z,40.60
2022-10-25T11:57:33.150Z,40.60
2022-10-25T12:00:09.866Z,40.80
2022-10-25T12:03:02.279Z,40.90
2022-10-25T12:05:45.270Z,40.60
2022-10-25T12:08:50.993Z,39.80
2022-10-25T12:11:23.330Z,39.40
2022-10-25T12:13:54.916Z,39.30
2022-10-25T12:16:23.283Z,39.30
2022-10-25T12:18:57.081Z,39.80
2022-10-25T12:21:31.341Z,39.80
2022-10-25T12:23:58.708Z,39.40
2022-10-25T12:26:28.512Z,39.60
2022-10-25T12:29:00.010Z,38.40
2022-10-25T12:31:29.497Z,36.70
2022-10-25T12:34:06.453Z,35.50
2022-10-25T12:36:46.580Z,34.50
2022-10-25T12:39:20.850Z,33.60
2022-10-25T12:41:52.252Z,33.50
2022-10-25T12:44:49.784Z,34.30
2022-10-25T12:47:22.492Z,35.40
2022-10-25T12:49:58.020Z,36.10
2022-10-25T12:52:41.457Z,36.50
2022-10-25T12:55:33.953Z,37.10
2022-10-25T12:58:22.227Z,37.30
2022-10-25T13:01:03.542Z,37.50
2022-10-25T13:03:39.138Z,37.50
2022-10-25T13:06:09.003Z,38.10
2022-10-25T13:08:39.716Z,38.40
2022-10-25T13:11:08.972Z,38.40
2022-10-25T13:13:40.123Z,39.00
2022-10-25T13:16:10.173Z,38.20
2022-10-25T13:18:42.517Z,36.90
2022-10-25T13:21:13.293Z,35.80
2022-10-25T13:23:43.098Z,34.50
2022-10-25T13:26:16.961Z,34.40
2022-10-25T13:28:49.008Z,33.80
2022-10-25T13:31:46.767Z,33.20
2022-10-25T13:34:13.491Z,32.70
2022-10-25T13:36:53.593Z,32.50
2022-10-25T13:39:45.305Z,33.40
2022-10-25T13:42:14.866Z,33.90
2022-10-25T13:45:04.614Z,33.80
2022-10-25T13:47:43.184Z,33.50
2022-10-25T13:50:28.982Z,32.80
2022-10-25T13:53:17.370Z,31.50
2022-10-25T13:56:06.935Z,30.40
2022-10-25T13:58:33.929Z,29.30
2022-10-25T14:01:16.073Z,28.60
2022-10-25T14:03:55.780Z,27.90
2022-10-25T14:06:36.939Z,27.30
2022-10-25T14:09:09.834Z,26.80
2022-10-25T14:11:42.380Z,26.50
2022-10-25T14:14:11.818Z,26.10
2022-10-25T14:17:01.350Z,26.10
2022-10-25T14:19:48.429Z,26.10
2022-10-25T14:22:26.852Z,25.90
2022-10-25T14:24:57.132Z,26.00
2022-10-25T14:27:31.881Z,26.00
2022-10-25T14:30:30.315Z,25.90
2022-10-25T14:32:58.262Z,25.80
2022-10-25T14:35:30.522Z,25.40
2022-10-25T14:37:57.408Z,25.10
2022-10-25T14:40:28.471Z,24.80
2022-10-25T14:42:55.965Z,24.60
2022-10-25T14:45:25.746Z,24.50
2022-10-25T14:47:53.176Z,24.30
2022-10-25T14:50:25.702Z,24.10
2022-10-25T14:52:54.869Z,24.00
2022-10-25T14:55:32.299Z,23.70
2022-10-25T14:58:02.025Z,23.40
2022-10-25T15:00:29.090Z,23.20
2022-10-25T15:03:02.237Z,23.40
2022-10-25T15:05:29.343Z,23.80
2022-10-25T15:08:00.519Z,24.00
2022-10-25T15:10:30.665Z,24.50
2022-10-25T15:13:13.102Z,24.70
2022-10-25T15:15:44.983Z,24.40
2022-10-25T15:18:27.087Z,24.30
2022-10-25T15:21:08.559Z,24.20
2022-10-25T15:23:36.682Z,24.10
2022-10-25T15:26:29.527Z,24.20
2022-10-25T15:28:59.104Z,24.10
2022-10-25T15:31:29.635Z,24.10
2022-10-25T15:34:01.924Z,24.00
2022-10-25T15:36:30.546Z,23.80
2022-10-25T15:39:08.923Z,23.50
2022-10-25T15:41:37.527Z,23.20
2022-10-25T15:44:04.288Z,22.80
2022-10-25T15:46:34.327Z,22.50
2022-10-25T15:49:04.507Z,22.10
2022-10-25T15:51:37.522Z,21.80
2022-10-25T15:54:04.350Z,21.30
2022-10-25T15:56:31.589Z,21.10
2022-10-25T15:59:00.354Z,20.90
2022-10-25T16:01:27.255Z,20.60
2022-10-25T16:03:54.587Z,20.40
2022-10-25T16:06:21.415Z,20.30
2022-10-25T16:08:48.150Z,20.20
2022-10-25T16:11:20.286Z,20.00
2022-10-25T16:13:49.963Z,20.00
2022-10-25T16:16:39.973Z,19.90
2022-10-25T16:19:16.248Z,19.80
2022-10-25T16:21:44.280Z,20.00
2022-10-25T16:24:11.769Z,19.60
2022-10-25T16:26:47.565Z,19.60
2022-10-25T16:29:24.070Z,19.50
2022-10-25T16:31:52.466Z,19.50
2022-10-25T16:34:20.025Z,19.40
2022-10-25T16:36:47.869Z,19.30
2022-10-25T16:39:14.862Z,19.40
2022-10-25T16:41:44.056Z,19.30
2022-10-25T16:44:18.820Z,19.20
2022-10-25T16:46:45.626Z,19.20
2022-10-25T16:49:12.855Z,19.20
2022-10-25T16:51:40.236Z,19.20
2022-10-25T16:54:08.093Z,19.10
2022-10-25T16:56:35.788Z,19.10
2022-10-25T16:59:03.026Z,19.10
2022-10-25T17:01:35.434Z,19.00
2022-10-25T17:04:04.437Z,19.00
2022-10-25T17:06:47.226Z,19.00
2022-10-25T17:09:14.072Z,19.00
2022-10-25T17:11:41.115Z,19.00
2022-10-25T17:14:09.755Z,19.00
2022-10-25T17:16:38.564Z,18.90
2022-10-25T17:19:05.341Z,18.90
2022-10-25T17:21:33.325Z,18.80
2022-10-25T17:24:00.202Z,18.70
2022-10-25T17:26:26.966Z,18.60
2022-10-25T17:28:53.856Z,18.60
2022-10-25T17:31:20.886Z,18.50
2022-10-25T17:33:47.677Z,18.50
2022-10-25T17:36:20.060Z,18.50
2022-10-25T17:38:47.174Z,18.40
2022-10-25T17:41:15.039Z,18.30
2022-10-25T17:43:42.743Z,18.20
2022-10-25T17:46:16.131Z,18.10
2022-10-25T17:48:42.964Z,18.10
2022-10-25T17:51:12.212Z,18.10
2022-10-25T17:53:39.365Z,18.10
2022-10-25T17:56:13.054Z,18.00
2022-10-25T17:58:44.541Z,17.90
2022-10-25T18:01:13.922Z,17.90
2022-10-25T18:03:40.979Z,17.80
2022-10-25T18:06:10.723Z,17.80
2022-10-25T18:08:37.958Z,17.80
2022-10-25T18:11:19.374Z,17.80
2022-10-25T18:13:46.286Z,17.80
2022-10-25T18:16:14.353Z,17.90
2022-10-25T18:18:41.169Z,17.90
2022-10-25T18:21:13.770Z,17.90
2022-10-25T18:23:41.839Z,17.80
2022-10-25T18:26:11.428Z,17.80
2022-10-25T18:28:38.535Z,17.80
2022-10-25T18:31:10.800Z,17.90
2022-10-25T18:33:39.759Z,17.90
2022-10-25T18:36:15.886Z,17.80
2022-10-25T18:38:43.718Z,17.90
2022-10-25T18:41:16.316Z,17.90
2022-10-25T18:43:43.449Z,17.90
2022-10-25T18:46:10.627Z,17.70
2022-10-25T18:48:37.429Z,17.70
2022-10-25T18:51:06.498Z,17.80
2022-10-25T18:53:35.573Z,17.70
2022-10-25T18:56:02.644Z,17.60
2022-10-25T18:58:32.595Z,17.50
2022-10-25T19:01:11.387Z,17.40
2022-10-25T19:03:38.572Z,17.50
2022-10-25T19:06:06.621Z,17.40
2022-10-25T19:08:34.983Z,17.40
2022-10-25T19:11:06.432Z,17.40
2022-10-25T19:13:34.163Z,17.40
2022-10-25T19:16:02.700Z,17.40
2022-10-25T19:18:31.172Z,17.40
2022-10-25T19:21:10.344Z,17.40
2022-10-25T19:28:54.706Z,17.20
2022-10-25T19:31:21.525Z,17.00
2022-10-25T19:33:50.566Z,16.10
2022-10-25T19:36:18.516Z,17.00
2022-10-25T19:38:48.264Z,16.90
2022-10-25T19:41:22.821Z,15.20
2022-10-25T19:43:50.360Z,15.70
2022-10-25T19:46:18.313Z,16.00
2022-10-25T20:11:06.724Z,16.30
2022-10-25T20:13:33.802Z,15.10
2022-10-25T20:52:58.523Z,16.40
2022-10-25T21:11:00.614Z,16.30
2022-10-25T22:51:59.455Z,15.20
2022-10-25T23:43:52.310Z,14.40
2022-10-25T23:46:19.722Z,13.30
2022-10-25T23:48:47.375Z,13.10
2022-10-25T23:51:17.046Z,12.60
2022-10-25T23:53:45.644Z,13.20
2022-10-25T23:56:13.852Z,12.70
2022-10-25T23:58:40.897Z,13.20
